Bristol, South Dakota
Current Conditions -  °F | °C
As of 9:53 PM on Sunday 23 Nov 2014 (Local Time) from KABR Reporting Station
Overcast Overcast  
Wind Chill:   Ceiling: 2500
Heat Index: 21°   Visibility: 10mi
Dew Point: 12°   Wind: 18mph
Humidity: 68%   Direction: 350°N
Pressure: 29.64"   Gusts: NA
Location:  45.34°N, 97.75°W
Report Text: KABR 240353Z AUTO 35016KT 10SM OVC025 M06/M11 A2964 RMK AO2 PK WND 33028/0255 SLP051 T10611111
Loading
Personal Weather Stations






























Interactive Weather Map New forecast layout! Learn more

10-Day Weather Forecast

Advertisements
Track Severe Weather on mobile